Time;durP1;ratioP1;P1;durP2;ratioP2;P2;SDS_P1;SDS_P2;PMS_P1;PMS_P2;Temp;Humidity;BMP_temperature;BMP_pressure;BME280_temperature;BME280_humidity;BME280_pressure;Samples;Min_cycle;Max_cycle;Signal;HPM_P1;HPM_P2
2024/05/06 00:01:26;;;;;;;1.05;0.90;;;;;;;;;;5389288;26;20455;-82
2024/05/06 00:04:16;;;;;;;1.70;0.93;;;;;;;;;;5391140;26;19999;-81
2024/05/06 00:06:42;;;;;;;0.65;0.65;;;;;;;;;;5381094;26;20007;-80
2024/05/06 00:09:08;;;;;;;2.40;0.93;;;;;;;;;;5426293;26;20448;-82
2024/05/06 00:11:34;;;;;;;1.20;0.73;;;;;;;;;;5393866;26;20006;-81
2024/05/06 00:14:00;;;;;;;1.88;1.17;;;;;;;;;;5382854;26;20440;-82
2024/05/06 00:16:26;;;;;;;2.25;1.02;;;;;;;;;;5415468;26;19999;-80
2024/05/06 00:18:52;;;;;;;1.77;1.38;;;;;;;;;;5423386;26;20072;-80
2024/05/06 00:21:26;;;;;;;1.42;1.08;;;;;;;;;;5396728;26;20003;-80
2024/05/06 00:23:54;;;;;;;1.10;0.73;;;;;;;;;;5394622;26;20458;-80
2024/05/06 00:26:23;;;;;;;1.30;1.17;;;;;;;;;;5393484;26;20065;-82
2024/05/06 00:28:48;;;;;;;1.00;0.90;;;;;;;;;;5393914;26;19999;-80
2024/05/06 00:31:17;;;;;;;1.52;0.60;;;;;;;;;;5374694;26;20000;-80
2024/05/06 00:33:43;;;;;;;2.15;0.77;;;;;;;;;;5389651;26;20408;-80
2024/05/06 00:36:08;;;;;;;0.93;0.80;;;;;;;;;;5387389;26;20002;-80
2024/05/06 00:38:34;;;;;;;5.10;0.75;;;;;;;;;;5396374;26;20067;-80
2024/05/06 00:40:59;;;;;;;0.82;0.65;;;;;;;;;;5387037;26;20068;-82
2024/05/06 00:43:25;;;;;;;1.05;0.90;;;;;;;;;;5389452;26;20078;-80
2024/05/06 00:45:54;;;;;;;1.83;0.70;;;;;;;;;;5388145;26;20000;-81
2024/05/06 00:48:19;;;;;;;6.13;1.02;;;;;;;;;;5385381;26;20338;-80
2024/05/06 00:50:46;;;;;;;0.77;0.77;;;;;;;;;;5391109;26;20085;-81
2024/05/06 00:53:12;;;;;;;3.45;1.25;;;;;;;;;;5395738;26;20003;-80
2024/05/06 00:55:44;;;;;;;1.63;1.50;;;;;;;;;;5381734;26;19996;-80
2024/05/06 00:58:15;;;;;;;3.63;1.02;;;;;;;;;;5414127;26;20079;-80
2024/05/06 01:00:40;;;;;;;2.00;1.80;;;;;;;;;;5379655;26;20198;-82
2024/05/06 01:03:34;;;;;;;1.00;0.98;;;;;;;;;;5411462;26;20181;-81
2024/05/06 01:06:01;;;;;;;2.03;0.80;;;;;;;;;;5383886;26;20009;-81
2024/05/06 01:08:39;;;;;;;1.80;1.13;;;;;;;;;;5391747;26;20450;-83
2024/05/06 01:11:09;;;;;;;1.10;0.95;;;;;;;;;;5358487;26;20859;-83
2024/05/06 01:13:40;;;;;;;2.05;1.50;;;;;;;;;;5384734;26;20007;-81
2024/05/06 01:16:32;;;;;;;2.28;1.33;;;;;;;;;;5419315;26;20016;-81
2024/05/06 01:19:03;;;;;;;0.80;0.80;;;;;;;;;;5385976;26;20006;-81
2024/05/06 01:21:35;;;;;;;9.50;0.98;;;;;;;;;;5403411;26;20026;-81
2024/05/06 01:24:04;;;;;;;1.20;1.10;;;;;;;;;;5392290;26;20009;-80
2024/05/06 01:26:32;;;;;;;1.33;0.90;;;;;;;;;;5398282;26;20027;-79
2024/05/06 01:29:00;;;;;;;1.45;1.27;;;;;;;;;;5412432;26;20355;-80
2024/05/06 01:31:35;;;;;;;1.70;1.02;;;;;;;;;;5373536;26;20000;-79
2024/05/06 01:34:00;;;;;;;0.68;0.68;;;;;;;;;;5385852;26;20012;-81
2024/05/06 01:36:26;;;;;;;1.17;1.08;;;;;;;;;;5377921;26;20015;-80
2024/05/06 01:38:51;;;;;;;1.52;1.20;;;;;;;;;;5385528;26;20065;-79
2024/05/06 01:41:17;;;;;;;0.93;0.93;;;;;;;;;;5390303;26;20018;-79
2024/05/06 01:43:42;;;;;;;5.65;1.35;;;;;;;;;;5419914;26;20019;-79
2024/05/06 01:46:07;;;;;;;1.25;0.80;;;;;;;;;;5424746;26;20015;-78
2024/05/06 01:48:33;;;;;;;2.20;1.00;;;;;;;;;;5377680;26;20030;-80
2024/05/06 01:50:58;;;;;;;0.82;0.73;;;;;;;;;;5409181;26;20015;-78
2024/05/06 01:53:24;;;;;;;1.70;1.20;;;;;;;;;;5381286;26;20018;-79
2024/05/06 01:55:50;;;;;;;1.42;0.90;;;;;;;;;;5411281;26;20003;-80
2024/05/06 01:58:16;;;;;;;1.52;1.30;;;;;;;;;;5386904;26;20031;-81
2024/05/06 02:00:41;;;;;;;7.65;1.13;;;;;;;;;;5426541;26;20072;-79
2024/05/06 02:03:06;;;;;;;0.70;0.70;;;;;;;;;;5389067;26;20000;-80
2024/05/06 02:05:32;;;;;;;1.40;0.93;;;;;;;;;;5392385;26;20010;-79
2024/05/06 02:07:57;;;;;;;1.25;1.05;;;;;;;;;;5388532;26;20006;-80
2024/05/06 02:10:23;;;;;;;1.80;1.30;;;;;;;;;;5417351;26;20028;-80
2024/05/06 02:12:48;;;;;;;0.77;0.75;;;;;;;;;;5397410;26;20007;-80
2024/05/06 02:15:14;;;;;;;3.22;1.60;;;;;;;;;;5399859;26;20009;-80
2024/05/06 02:17:39;;;;;;;2.42;1.38;;;;;;;;;;5434118;26;20077;-80
2024/05/06 02:20:05;;;;;;;2.20;0.93;;;;;;;;;;5419118;26;20101;-82
2024/05/06 02:22:30;;;;;;;1.13;0.82;;;;;;;;;;5404287;26;20109;-80
2024/05/06 02:24:56;;;;;;;1.98;1.10;;;;;;;;;;5384869;26;20010;-81
2024/05/06 02:27:21;;;;;;;2.40;0.90;;;;;;;;;;5422912;26;19999;-80
2024/05/06 02:29:49;;;;;;;1.20;0.98;;;;;;;;;;5392155;26;20022;-80
2024/05/06 02:32:15;;;;;;;1.15;1.05;;;;;;;;;;5392493;26;20394;-80
2024/05/06 02:34:40;;;;;;;0.80;0.80;;;;;;;;;;5407296;26;20011;-80
2024/05/06 02:37:06;;;;;;;0.65;0.60;;;;;;;;;;5397314;26;20085;-81
2024/05/06 02:39:31;;;;;;;1.25;1.02;;;;;;;;;;5426004;26;20435;-81
2024/05/06 02:41:56;;;;;;;4.55;1.45;;;;;;;;;;5385403;26;20032;-81
2024/05/06 02:44:22;;;;;;;0.88;0.77;;;;;;;;;;5392412;26;20011;-81
2024/05/06 02:46:47;;;;;;;0.93;0.60;;;;;;;;;;5399405;26;20460;-80
2024/05/06 02:49:13;;;;;;;2.10;1.27;;;;;;;;;;5418841;26;20007;-80
2024/05/06 02:51:38;;;;;;;2.33;1.65;;;;;;;;;;5418935;26;20003;-81
2024/05/06 02:54:03;;;;;;;0.93;0.70;;;;;;;;;;5386452;26;20077;-80
2024/05/06 02:56:29;;;;;;;1.95;1.67;;;;;;;;;;5400575;26;20010;-81
2024/05/06 02:58:54;;;;;;;1.15;0.90;;;;;;;;;;5389739;26;20003;-81
2024/05/06 03:01:20;;;;;;;0.93;0.60;;;;;;;;;;5427302;26;20050;-81
2024/05/06 03:03:45;;;;;;;1.80;1.33;;;;;;;;;;5382163;26;20003;-80
2024/05/06 03:06:11;;;;;;;1.13;1.02;;;;;;;;;;5393963;26;20000;-79
2024/05/06 03:08:42;;;;;;;1.15;0.88;;;;;;;;;;5401755;26;20007;-81
2024/05/06 03:11:08;;;;;;;2.90;1.80;;;;;;;;;;5395533;26;20448;-80
2024/05/06 03:13:33;;;;;;;2.33;1.60;;;;;;;;;;5382151;26;20014;-80
2024/05/06 03:15:59;;;;;;;1.20;1.10;;;;;;;;;;5414866;26;20010;-78
2024/05/06 03:18:24;;;;;;;1.75;1.63;;;;;;;;;;5391464;26;20007;-79
2024/05/06 03:20:49;;;;;;;2.03;1.20;;;;;;;;;;5399849;26;20439;-81
2024/05/06 03:23:18;;;;;;;1.02;0.85;;;;;;;;;;5396393;26;20049;-80
2024/05/06 03:25:43;;;;;;;0.40;0.40;;;;;;;;;;5416141;26;20000;-79
2024/05/06 03:28:08;;;;;;;2.72;1.38;;;;;;;;;;5399508;26;20003;-80
2024/05/06 03:30:34;;;;;;;3.83;1.65;;;;;;;;;;5424492;26;19996;-79
2024/05/06 03:32:59;;;;;;;2.30;2.10;;;;;;;;;;5423252;26;19998;-79
2024/05/06 03:35:25;;;;;;;1.50;1.05;;;;;;;;;;5388179;26;20048;-81
2024/05/06 03:37:50;;;;;;;1.55;1.10;;;;;;;;;;5414917;26;20003;-80
2024/05/06 03:40:16;;;;;;;1.00;0.90;;;;;;;;;;5429819;26;20018;-82
2024/05/06 03:42:41;;;;;;;1.73;1.08;;;;;;;;;;5404512;26;20010;-84
2024/05/06 03:45:10;;;;;;;1.00;0.73;;;;;;;;;;5397847;26;20000;-80
2024/05/06 03:47:35;;;;;;;1.63;1.40;;;;;;;;;;5386954;26;20010;-80
2024/05/06 03:50:01;;;;;;;3.40;1.85;;;;;;;;;;5422270;26;19994;-79
2024/05/06 03:52:26;;;;;;;1.65;1.42;;;;;;;;;;5425893;26;19999;-79
2024/05/06 03:54:51;;;;;;;5.97;1.83;;;;;;;;;;5398050;26;20039;-79
2024/05/06 03:57:17;;;;;;;1.90;1.73;;;;;;;;;;5391738;26;20003;-79
2024/05/06 03:59:46;;;;;;;1.45;1.10;;;;;;;;;;5422684;26;20014;-79
2024/05/06 04:02:12;;;;;;;1.13;1.05;;;;;;;;;;5383324;26;20013;-79
2024/05/06 04:04:38;;;;;;;1.50;1.30;;;;;;;;;;5422600;26;19999;-78
2024/05/06 04:07:03;;;;;;;2.17;1.17;;;;;;;;;;5403763;26;20045;-80
2024/05/06 04:09:29;;;;;;;1.25;1.13;;;;;;;;;;5395845;26;20051;-79
2024/05/06 04:11:54;;;;;;;2.40;1.05;;;;;;;;;;5396095;26;19999;-79
2024/05/06 04:14:20;;;;;;;2.83;1.17;;;;;;;;;;5387178;26;20007;-79
2024/05/06 04:16:45;;;;;;;1.17;0.93;;;;;;;;;;5399484;26;19998;-79
2024/05/06 04:19:10;;;;;;;1.05;0.95;;;;;;;;;;5390926;26;20042;-79
2024/05/06 04:21:37;;;;;;;6.13;1.70;;;;;;;;;;5389910;26;20060;-79
2024/05/06 04:29:31;;;;;;;1.55;1.05;;;;;;;;;;5430804;26;20343;-78
2024/05/06 04:31:56;;;;;;;1.40;1.10;;;;;;;;;;5384336;26;20035;-79
2024/05/06 04:34:22;;;;;;;2.03;1.40;;;;;;;;;;5391561;26;20002;-78
2024/05/06 04:36:47;;;;;;;1.50;0.93;;;;;;;;;;5401137;26;19995;-79
2024/05/06 04:39:12;;;;;;;6.18;1.55;;;;;;;;;;5381018;26;20334;-79
2024/05/06 04:41:41;;;;;;;3.20;1.50;;;;;;;;;;5410197;26;20014;-78
2024/05/06 04:44:07;;;;;;;1.75;1.10;;;;;;;;;;5414880;26;20000;-80
2024/05/06 04:46:32;;;;;;;1.30;1.20;;;;;;;;;;5391564;26;19998;-79
2024/05/06 04:48:57;;;;;;;2.50;1.42;;;;;;;;;;5425407;26;20019;-80
2024/05/06 04:51:23;;;;;;;2.55;2.10;;;;;;;;;;5383458;26;20003;-80
2024/05/06 04:53:48;;;;;;;2.40;1.80;;;;;;;;;;5392682;26;20003;-79
2024/05/06 04:56:13;;;;;;;2.97;2.20;;;;;;;;;;5418278;26;20840;-79
2024/05/06 04:58:39;;;;;;;1.40;1.30;;;;;;;;;;5423123;26;19999;-81
2024/05/06 05:01:07;;;;;;;2.80;1.73;;;;;;;;;;5398524;26;19999;-80
2024/05/06 05:03:33;;;;;;;2.40;1.48;;;;;;;;;;5432145;26;20486;-80
2024/05/06 05:05:58;;;;;;;2.92;1.83;;;;;;;;;;5389876;26;19999;-80
2024/05/06 05:08:24;;;;;;;5.30;2.28;;;;;;;;;;5391499;26;20014;-81
2024/05/06 05:10:49;;;;;;;2.40;1.67;;;;;;;;;;5392909;26;19999;-79
2024/05/06 05:13:17;;;;;;;2.92;2.28;;;;;;;;;;5419245;26;20019;-80
2024/05/06 05:15:43;;;;;;;2.55;2.05;;;;;;;;;;5388638;26;19996;-79
2024/05/06 05:18:11;;;;;;;2.85;1.77;;;;;;;;;;5424016;26;20312;-80
2024/05/06 05:20:37;;;;;;;2.15;1.83;;;;;;;;;;5429504;26;20003;-79
2024/05/06 05:23:02;;;;;;;2.78;1.60;;;;;;;;;;5391433;26;20018;-80
2024/05/06 05:25:28;;;;;;;4.00;1.83;;;;;;;;;;5392582;26;20496;-79
2024/05/06 05:27:53;;;;;;;2.08;1.40;;;;;;;;;;5384178;26;20004;-79
2024/05/06 05:30:24;;;;;;;1.58;1.38;;;;;;;;;;5421961;26;20010;-79
2024/05/06 05:32:50;;;;;;;2.25;1.75;;;;;;;;;;5425454;26;20006;-80
2024/05/06 05:35:15;;;;;;;2.83;2.25;;;;;;;;;;5383581;26;20003;-81
2024/05/06 05:37:41;;;;;;;1.65;1.45;;;;;;;;;;5400252;26;20431;-78
2024/05/06 05:40:09;;;;;;;1.75;1.50;;;;;;;;;;5430416;26;20013;-79
2024/05/06 05:42:35;;;;;;;2.67;1.52;;;;;;;;;;5415451;26;20152;-79
2024/05/06 05:45:00;;;;;;;2.13;1.67;;;;;;;;;;5389470;26;20033;-82
2024/05/06 05:47:26;;;;;;;2.30;1.48;;;;;;;;;;5404517;26;20009;-79
2024/05/06 05:49:51;;;;;;;2.20;1.65;;;;;;;;;;5391296;26;19996;-81
2024/05/06 05:52:17;;;;;;;1.60;1.50;;;;;;;;;;5397120;26;20003;-81
2024/05/06 05:54:46;;;;;;;2.97;1.98;;;;;;;;;;5426637;26;19995;-82
2024/05/06 05:57:11;;;;;;;2.00;1.27;;;;;;;;;;5390376;26;20481;-80
2024/05/06 05:59:37;;;;;;;1.80;1.48;;;;;;;;;;5395946;26;20002;-83
2024/05/06 06:02:02;;;;;;;2.78;2.25;;;;;;;;;;5372264;26;20055;-81
2024/05/06 06:04:28;;;;;;;2.70;2.13;;;;;;;;;;5389568;26;20033;-82
2024/05/06 06:06:54;;;;;;;2.53;1.90;;;;;;;;;;5424445;26;20006;-80
2024/05/06 06:09:20;;;;;;;2.08;1.60;;;;;;;;;;5386973;26;19995;-80
2024/05/06 06:11:45;;;;;;;1.75;1.42;;;;;;;;;;5382417;26;20011;-81
2024/05/06 06:14:11;;;;;;;4.78;1.67;;;;;;;;;;5402658;26;20006;-80
2024/05/06 06:16:36;;;;;;;1.45;1.33;;;;;;;;;;5417289;26;20365;-79
2024/05/06 06:19:01;;;;;;;1.85;1.33;;;;;;;;;;5380522;26;19995;-79
2024/05/06 06:21:27;;;;;;;1.83;1.48;;;;;;;;;;5379710;26;20003;-79
2024/05/06 06:23:52;;;;;;;2.17;1.40;;;;;;;;;;5393992;26;20010;-81
2024/05/06 06:26:21;;;;;;;3.30;1.50;;;;;;;;;;5399100;26;20003;-81
2024/05/06 06:28:48;;;;;;;4.25;1.73;;;;;;;;;;5375035;26;20004;-78
2024/05/06 06:31:14;;;;;;;2.95;1.83;;;;;;;;;;5388449;26;20042;-79
2024/05/06 06:54:28;;;;;;;3.03;2.45;;;;;;;;;;5408323;26;20368;-83
2024/05/06 06:56:54;;;;;;;3.70;2.05;;;;;;;;;;5396078;26;20047;-81
2024/05/06 06:59:19;;;;;;;2.53;1.83;;;;;;;;;;5348735;26;20375;-81
2024/05/06 07:01:50;;;;;;;2.03;1.80;;;;;;;;;;5367124;26;19996;-84
2024/05/06 07:04:16;;;;;;;2.45;1.65;;;;;;;;;;5348790;26;20023;-81
2024/05/06 07:06:41;;;;;;;3.30;2.42;;;;;;;;;;5361335;26;19997;-83
2024/05/06 07:09:07;;;;;;;2.15;1.63;;;;;;;;;;5361531;26;20019;-82
2024/05/06 07:11:33;;;;;;;2.78;1.95;;;;;;;;;;5352109;26;20012;-85
2024/05/06 07:13:58;;;;;;;2.05;1.58;;;;;;;;;;5356199;26;20011;-81
2024/05/06 07:16:24;;;;;;;2.53;1.55;;;;;;;;;;5356240;26;20051;-83
2024/05/06 07:18:52;;;;;;;3.05;1.92;;;;;;;;;;5364452;26;20004;-82
2024/05/06 07:21:18;;;;;;;2.80;1.83;;;;;;;;;;5349654;26;20001;-84
2024/05/06 07:23:43;;;;;;;4.32;2.22;;;;;;;;;;5357814;26;20019;-83
2024/05/06 07:26:08;;;;;;;3.55;1.50;;;;;;;;;;5346022;26;20397;-83
2024/05/06 07:28:34;;;;;;;2.22;1.48;;;;;;;;;;5345733;26;20000;-85
2024/05/06 07:30:59;;;;;;;1.40;1.30;;;;;;;;;;5355258;26;20045;-82
2024/05/06 07:33:29;;;;;;;1.35;1.20;;;;;;;;;;5386670;26;20000;-83
2024/05/06 07:35:54;;;;;;;1.65;1.33;;;;;;;;;;5360177;26;20013;-81
2024/05/06 07:38:19;;;;;;;1.90;1.17;;;;;;;;;;5354018;26;20018;-84
2024/05/06 07:40:45;;;;;;;1.52;1.30;;;;;;;;;;5359830;26;20019;-82
2024/05/06 07:43:10;;;;;;;3.22;1.70;;;;;;;;;;5353794;26;20004;-82
2024/05/06 07:45:35;;;;;;;3.28;1.60;;;;;;;;;;5344928;26;19997;-84
2024/05/06 07:48:01;;;;;;;3.33;2.70;;;;;;;;;;5355076;26;20005;-81
2024/05/06 07:50:26;;;;;;;3.08;2.08;;;;;;;;;;5350058;26;20075;-85
2024/05/06 07:52:52;;;;;;;2.67;1.85;;;;;;;;;;5354865;26;20001;-82
2024/05/06 07:55:17;;;;;;;2.90;2.05;;;;;;;;;;5348541;26;20011;-83
2024/05/06 07:57:42;;;;;;;4.07;2.47;;;;;;;;;;5348383;26;19997;-83
2024/05/06 08:00:08;;;;;;;2.75;1.65;;;;;;;;;;5337747;26;19997;-84
2024/05/06 08:02:34;;;;;;;3.35;2.00;;;;;;;;;;5341361;26;20041;-83
2024/05/06 08:04:59;;;;;;;2.53;1.90;;;;;;;;;;5343044;26;20013;-83
2024/05/06 08:07:27;;;;;;;9.13;2.13;;;;;;;;;;5343083;26;19998;-81
2024/05/06 08:09:53;;;;;;;2.47;2.28;;;;;;;;;;5347335;26;20012;-82
2024/05/06 08:12:18;;;;;;;2.40;1.88;;;;;;;;;;5342228;26;20005;-84
2024/05/06 08:14:44;;;;;;;2.10;1.75;;;;;;;;;;5338518;26;20052;-82
2024/05/06 08:17:13;;;;;;;10.27;2.22;;;;;;;;;;5339697;26;20001;-84
2024/05/06 08:19:39;;;;;;;3.37;2.13;;;;;;;;;;5342902;26;20015;-84
2024/05/06 08:22:04;;;;;;;3.28;2.10;;;;;;;;;;5331218;26;20338;-83
2024/05/06 08:24:30;;;;;;;2.58;1.67;;;;;;;;;;5341002;26;20015;-84
2024/05/06 08:26:55;;;;;;;2.55;1.75;;;;;;;;;;5336131;26;20318;-83
2024/05/06 08:29:21;;;;;;;1.50;1.25;;;;;;;;;;5332710;26;20053;-82
2024/05/06 08:31:47;;;;;;;5.15;1.67;;;;;;;;;;5341802;26;20390;-83
2024/05/06 08:34:13;;;;;;;2.08;1.55;;;;;;;;;;5337118;26;20001;-82
2024/05/06 08:36:38;;;;;;;2.83;1.92;;;;;;;;;;5340539;26;20525;-82
2024/05/06 08:39:04;;;;;;;9.18;5.57;;;;;;;;;;5343540;26;20015;-82
2024/05/06 08:41:30;;;;;;;8.25;4.45;;;;;;;;;;5367471;26;20412;-83
2024/05/06 08:43:56;;;;;;;2.20;2.00;;;;;;;;;;5318756;26;20005;-82
2024/05/06 08:46:24;;;;;;;92.30;62.08;;;;;;;;;;5370663;26;20054;-84
2024/05/06 08:48:50;;;;;;;7.47;5.95;;;;;;;;;;5330583;26;20009;-82
2024/05/06 08:51:17;;;;;;;2.65;1.50;;;;;;;;;;5339433;26;20001;-82
2024/05/06 08:53:44;;;;;;;2.15;1.85;;;;;;;;;;5336906;26;20457;-81
2024/05/06 08:56:13;;;;;;;2.53;1.58;;;;;;;;;;5339598;26;20028;-84
2024/05/06 08:58:41;;;;;;;2.53;1.88;;;;;;;;;;5327867;26;20008;-84
2024/05/06 09:01:07;;;;;;;3.35;2.20;;;;;;;;;;5344565;26;20004;-82
2024/05/06 09:03:32;;;;;;;8.43;5.90;;;;;;;;;;5342628;26;20012;-86
2024/05/06 09:05:58;;;;;;;2.15;1.50;;;;;;;;;;5332073;26;20008;-83
2024/05/06 09:08:24;;;;;;;3.40;1.98;;;;;;;;;;5339573;26;19997;-84
2024/05/06 09:10:51;;;;;;;17.58;11.00;;;;;;;;;;5331303;26;20008;-79
2024/05/06 09:13:23;;;;;;;9.35;7.10;;;;;;;;;;5341445;26;20038;-85
2024/05/06 09:15:58;;;;;;;4.32;3.20;;;;;;;;;;5340369;26;20015;-83
2024/05/06 09:18:24;;;;;;;10.32;7.25;;;;;;;;;;5325733;26;20020;-83
2024/05/06 09:20:59;;;;;;;8.52;2.65;;;;;;;;;;5329111;26;20001;-81
2024/05/06 09:23:25;;;;;;;3.78;2.58;;;;;;;;;;5340943;26;20002;-81
2024/05/06 09:25:50;;;;;;;14.68;8.52;;;;;;;;;;5331927;26;20008;-83
2024/05/06 09:28:17;;;;;;;40.03;25.40;;;;;;;;;;5340648;26;20020;-83
2024/05/06 09:30:49;;;;;;;10.57;4.50;;;;;;;;;;5329389;26;20026;-83
2024/05/06 09:33:24;;;;;;;1.98;1.48;;;;;;;;;;5340459;26;20448;-81
2024/05/06 09:35:50;;;;;;;2.22;1.65;;;;;;;;;;5335887;26;20465;-82
2024/05/06 09:38:20;;;;;;;2.63;2.03;;;;;;;;;;5338109;26;20369;-83
2024/05/06 09:41:08;;;;;;;2.00;1.48;;;;;;;;;;5323659;26;20005;-86
2024/05/06 09:43:36;;;;;;;5.07;2.50;;;;;;;;;;5329701;26;20156;-80
2024/05/06 09:46:03;;;;;;;5.18;2.40;;;;;;;;;;5338626;26;20040;-80
2024/05/06 09:48:36;;;;;;;3.53;1.38;;;;;;;;;;5328044;26;19997;-85
2024/05/06 09:51:07;;;;;;;2.40;1.83;;;;;;;;;;5337617;26;20434;-81
2024/05/06 09:53:43;;;;;;;3.03;1.70;;;;;;;;;;5328708;26;20460;-80
2024/05/06 09:56:10;;;;;;;2.78;1.73;;;;;;;;;;5330581;26;20016;-82
2024/05/06 09:58:39;;;;;;;2.38;1.60;;;;;;;;;;5341119;26;20448;-81
2024/05/06 10:01:08;;;;;;;3.72;1.80;;;;;;;;;;5341181;26;20832;-86
2024/05/06 10:03:35;;;;;;;2.08;1.45;;;;;;;;;;5330800;26;20001;-85
2024/05/06 10:06:04;;;;;;;1.90;1.50;;;;;;;;;;5334002;26;20002;-83
2024/05/06 10:08:32;;;;;;;2.42;1.42;;;;;;;;;;5323452;26;20001;-81
2024/05/06 10:10:58;;;;;;;2.10;1.45;;;;;;;;;;5328849;26;20825;-82
2024/05/06 10:13:24;;;;;;;2.50;1.20;;;;;;;;;;5320886;26;20017;-82
2024/05/06 10:15:51;;;;;;;2.17;1.60;;;;;;;;;;5324650;26;20012;-81
2024/05/06 10:18:23;;;;;;;2.13;1.73;;;;;;;;;;5333150;26;20015;-82
2024/05/06 10:20:59;;;;;;;2.50;1.63;;;;;;;;;;5340605;26;20448;-81
2024/05/06 10:23:27;;;;;;;2.30;1.48;;;;;;;;;;5337425;26;20045;-80
2024/05/06 10:26:00;;;;;;;2.05;1.67;;;;;;;;;;5330737;26;20068;-83
2024/05/06 10:28:43;;;;;;;1.33;1.20;;;;;;;;;;5337935;26;22376;-79
2024/05/06 10:31:10;;;;;;;9.60;1.33;;;;;;;;;;5328619;26;20124;-80
2024/05/06 10:33:38;;;;;;;1.70;1.40;;;;;;;;;;5335578;26;20400;-79
2024/05/06 10:36:04;;;;;;;1.83;1.23;;;;;;;;;;5320671;26;20016;-79
2024/05/06 10:38:33;;;;;;;2.85;1.55;;;;;;;;;;5326877;26;20428;-80
2024/05/06 10:41:00;;;;;;;2.75;1.70;;;;;;;;;;5327411;26;20020;-83
2024/05/06 10:43:26;;;;;;;1.48;1.13;;;;;;;;;;5336983;26;20000;-82
2024/05/06 10:46:00;;;;;;;1.20;1.00;;;;;;;;;;5331489;26;20471;-83
2024/05/06 10:48:26;;;;;;;1.10;1.00;;;;;;;;;;5327762;26;20001;-84
2024/05/06 10:50:52;;;;;;;2.70;1.58;;;;;;;;;;5337298;26;20035;-83
2024/05/06 10:53:22;;;;;;;2.85;1.88;;;;;;;;;;5319490;26;20928;-84
2024/05/06 10:55:48;;;;;;;1.95;1.60;;;;;;;;;;5328443;26;20016;-82
2024/05/06 10:58:14;;;;;;;2.67;1.83;;;;;;;;;;5334531;26;20001;-82
2024/05/06 11:00:40;;;;;;;3.08;1.42;;;;;;;;;;5325883;26;20016;-83
2024/05/06 11:03:06;;;;;;;1.77;1.27;;;;;;;;;;5334657;26;20001;-81
2024/05/06 11:05:35;;;;;;;2.10;1.45;;;;;;;;;;5329956;26;20013;-83
2024/05/06 11:08:03;;;;;;;1.92;1.55;;;;;;;;;;5317986;26;20348;-81
2024/05/06 11:10:32;;;;;;;1.80;1.40;;;;;;;;;;5325516;26;20080;-81
2024/05/06 11:12:58;;;;;;;1.67;1.17;;;;;;;;;;5333214;26;20041;-80
2024/05/06 11:15:26;;;;;;;1.88;1.20;;;;;;;;;;5332254;26;20001;-83
2024/05/06 11:17:55;;;;;;;1.08;0.98;;;;;;;;;;5365573;26;19997;-83
2024/05/06 11:20:34;;;;;;;2.80;1.63;;;;;;;;;;5337050;26;20005;-84
2024/05/06 11:23:07;;;;;;;1.20;1.08;;;;;;;;;;5333360;26;20483;-81
2024/05/06 11:25:33;;;;;;;1.15;1.08;;;;;;;;;;5326431;26;20099;-82
2024/05/06 11:27:59;;;;;;;1.80;1.27;;;;;;;;;;5326301;26;19998;-82
2024/05/06 11:30:27;;;;;;;1.30;1.20;;;;;;;;;;5332216;26;20016;-82
2024/05/06 11:32:53;;;;;;;2.27;1.70;;;;;;;;;;5325129;26;20013;-82
2024/05/06 11:35:18;;;;;;;2.00;1.30;;;;;;;;;;5337853;26;20060;-83
2024/05/06 11:37:44;;;;;;;1.35;1.10;;;;;;;;;;5339296;26;19997;-83
2024/05/06 11:40:10;;;;;;;2.08;1.20;;;;;;;;;;5338159;26;19996;-85
2024/05/06 11:42:40;;;;;;;1.48;0.95;;;;;;;;;;5337823;26;20029;-85
2024/05/06 11:45:06;;;;;;;6.25;1.35;;;;;;;;;;5341524;26;20365;-83
2024/05/06 11:47:31;;;;;;;1.88;1.23;;;;;;;;;;5335315;26;20040;-80
2024/05/06 11:49:57;;;;;;;3.40;1.42;;;;;;;;;;5335973;26;20059;-80
2024/05/06 11:52:22;;;;;;;2.58;1.27;;;;;;;;;;5330206;26;20008;-84
2024/05/06 11:54:48;;;;;;;1.13;1.00;;;;;;;;;;5341141;26;20004;-84
2024/05/06 11:57:14;;;;;;;4.10;1.08;;;;;;;;;;5338601;26;20365;-84
2024/05/06 11:59:39;;;;;;;2.70;1.38;;;;;;;;;;5327343;26;20052;-82
2024/05/06 12:02:05;;;;;;;1.42;1.10;;;;;;;;;;5331961;26;20014;-81
2024/05/06 12:04:31;;;;;;;2.13;1.42;;;;;;;;;;5336219;26;20045;-86
2024/05/06 12:06:56;;;;;;;2.33;1.45;;;;;;;;;;5330389;26;20603;-83
2024/05/06 12:09:25;;;;;;;2.10;1.35;;;;;;;;;;5325429;26;20002;-86
2024/05/06 12:11:51;;;;;;;3.28;1.25;;;;;;;;;;5336531;26;20005;-86
2024/05/06 12:14:16;;;;;;;0.85;0.82;;;;;;;;;;5343421;26;20027;-86
2024/05/06 12:16:42;;;;;;;1.50;0.90;;;;;;;;;;5341430;26;20459;-81
2024/05/06 12:19:16;;;;;;;0.95;0.80;;;;;;;;;;5333291;26;20452;-83
2024/05/06 12:21:43;;;;;;;1.75;1.05;;;;;;;;;;5338131;26;20348;-81
2024/05/06 12:24:09;;;;;;;1.23;1.08;;;;;;;;;;5338201;26;20641;-77
2024/05/06 12:26:37;;;;;;;1.55;0.65;;;;;;;;;;5323892;26;20006;-82
2024/05/06 12:29:02;;;;;;;0.65;0.65;;;;;;;;;;5333780;26;20020;-84
2024/05/06 12:31:28;;;;;;;1.65;1.10;;;;;;;;;;5341739;26;20029;-84
2024/05/06 12:33:56;;;;;;;3.33;1.20;;;;;;;;;;5339969;26;20510;-80
2024/05/06 12:36:37;;;;;;;1.25;0.98;;;;;;;;;;5332507;26;20322;-86
2024/05/06 12:39:04;;;;;;;1.38;0.90;;;;;;;;;;5339171;26;20001;-84
2024/05/06 12:41:30;;;;;;;1.63;1.20;;;;;;;;;;5339307;26;20018;-84
2024/05/06 12:43:56;;;;;;;1.20;1.10;;;;;;;;;;5335555;26;20337;-85
2024/05/06 12:46:26;;;;;;;1.33;0.95;;;;;;;;;;5331287;26;20012;-85
2024/05/06 12:48:52;;;;;;;1.55;1.13;;;;;;;;;;5365596;26;20009;-83
2024/05/06 12:51:18;;;;;;;1.05;0.95;;;;;;;;;;5320432;26;20020;-85
2024/05/06 12:53:43;;;;;;;1.10;0.88;;;;;;;;;;5338301;26;20013;-85
2024/05/06 12:56:09;;;;;;;1.05;0.90;;;;;;;;;;5337671;26;20083;-84
2024/05/06 12:58:34;;;;;;;1.05;0.95;;;;;;;;;;5331825;26;20005;-82
2024/05/06 13:01:00;;;;;;;1.00;0.82;;;;;;;;;;5329331;26;20817;-83
2024/05/06 13:03:25;;;;;;;1.05;0.90;;;;;;;;;;5335888;26;20542;-85
2024/05/06 13:05:54;;;;;;;3.72;1.00;;;;;;;;;;5330224;26;20005;-86
2024/05/06 13:08:20;;;;;;;3.22;0.95;;;;;;;;;;5326334;26;20009;-81
2024/05/06 13:10:45;;;;;;;3.60;0.90;;;;;;;;;;5338005;26;20353;-84
2024/05/06 13:13:11;;;;;;;1.00;0.82;;;;;;;;;;5334742;26;20013;-84
2024/05/06 13:15:36;;;;;;;1.00;0.80;;;;;;;;;;5372205;26;20011;-83
2024/05/06 13:18:02;;;;;;;1.27;0.85;;;;;;;;;;5341128;26;20014;-85
2024/05/06 13:20:32;;;;;;;0.70;0.70;;;;;;;;;;5333331;26;20001;-83
2024/05/06 13:22:57;;;;;;;1.17;0.85;;;;;;;;;;5328642;26;20017;-81
2024/05/06 13:25:24;;;;;;;2.17;1.45;;;;;;;;;;5333287;26;20005;-82
2024/05/06 13:27:49;;;;;;;1.23;0.80;;;;;;;;;;5329912;26;20036;-82
2024/05/06 13:30:16;;;;;;;1.05;0.95;;;;;;;;;;5331371;26;20020;-86
2024/05/06 13:32:41;;;;;;;0.77;0.75;;;;;;;;;;5333228;26;20004;-84
2024/05/06 13:35:07;;;;;;;1.08;0.93;;;;;;;;;;5340782;26;20015;-80
2024/05/06 13:37:34;;;;;;;0.93;0.70;;;;;;;;;;5326360;26;20001;-84
2024/05/06 13:40:01;;;;;;;1.50;1.00;;;;;;;;;;5341193;26;20087;-84
2024/05/06 13:42:26;;;;;;;1.63;1.33;;;;;;;;;;5341941;26;20016;-82
2024/05/06 13:44:51;;;;;;;1.30;0.90;;;;;;;;;;5327595;26;20032;-81
2024/05/06 13:47:17;;;;;;;1.23;1.08;;;;;;;;;;5334530;26;20105;-82
2024/05/06 13:49:42;;;;;;;1.60;1.23;;;;;;;;;;5338657;26;19997;-80
2024/05/06 13:52:08;;;;;;;1.10;0.95;;;;;;;;;;5330171;26;20000;-85
2024/05/06 13:54:33;;;;;;;2.38;0.90;;;;;;;;;;5337221;26;20009;-83
2024/05/06 13:56:58;;;;;;;2.30;1.17;;;;;;;;;;5336559;26;20009;-81
2024/05/06 13:59:24;;;;;;;2.05;0.88;;;;;;;;;;5337628;26;20000;-82
2024/05/06 14:01:49;;;;;;;0.80;0.70;;;;;;;;;;5334947;26;19996;-83
2024/05/06 14:04:15;;;;;;;1.40;0.98;;;;;;;;;;5329525;26;19998;-81
2024/05/06 14:06:40;;;;;;;1.08;0.88;;;;;;;;;;5338406;26;20000;-82
2024/05/06 14:09:06;;;;;;;1.08;0.98;;;;;;;;;;5332493;26;20456;-80
2024/05/06 14:11:32;;;;;;;0.60;0.60;;;;;;;;;;5328974;26;19993;-82
2024/05/06 14:13:57;;;;;;;0.88;0.77;;;;;;;;;;5334618;26;20416;-81
2024/05/06 14:16:23;;;;;;;0.80;0.65;;;;;;;;;;5338211;26;20025;-83
2024/05/06 14:18:48;;;;;;;1.00;0.65;;;;;;;;;;5334410;26;20005;-83
2024/05/06 14:21:14;;;;;;;1.23;0.85;;;;;;;;;;5328551;26;20425;-84
2024/05/06 14:23:39;;;;;;;0.88;0.85;;;;;;;;;;5338950;26;20021;-83
2024/05/06 14:26:05;;;;;;;3.65;0.88;;;;;;;;;;5339490;26;20012;-84
2024/05/06 14:28:30;;;;;;;0.82;0.82;;;;;;;;;;5336522;26;20024;-83
2024/05/06 14:30:57;;;;;;;2.38;1.15;;;;;;;;;;5330303;26;20008;-83
2024/05/06 14:33:22;;;;;;;4.32;2.22;;;;;;;;;;5329108;26;20012;-83
2024/05/06 14:35:48;;;;;;;1.38;0.93;;;;;;;;;;5341041;26;20001;-83
2024/05/06 14:38:13;;;;;;;2.83;1.10;;;;;;;;;;5322843;26;20030;-83
2024/05/06 14:40:38;;;;;;;1.35;1.10;;;;;;;;;;5325233;26;20469;-82
2024/05/06 14:43:04;;;;;;;1.73;1.42;;;;;;;;;;5340171;26;20001;-80
2024/05/06 14:45:30;;;;;;;1.40;1.20;;;;;;;;;;5333984;26;20144;-82
2024/05/06 14:47:56;;;;;;;1.70;1.02;;;;;;;;;;5331598;26;20020;-80
2024/05/06 14:50:21;;;;;;;2.05;1.10;;;;;;;;;;5326272;26;20853;-83
2024/05/06 14:52:47;;;;;;;1.50;0.85;;;;;;;;;;5326124;26;20017;-83
2024/05/06 14:55:12;;;;;;;2.38;1.30;;;;;;;;;;5366598;26;20011;-81
2024/05/06 14:57:37;;;;;;;1.77;0.88;;;;;;;;;;5338536;26;20012;-80
2024/05/06 15:00:03;;;;;;;1.23;1.05;;;;;;;;;;5325435;26;20006;-83
2024/05/06 15:02:29;;;;;;;1.08;0.98;;;;;;;;;;5327096;26;20001;-84
2024/05/06 15:04:54;;;;;;;0.93;0.77;;;;;;;;;;5330727;26;19997;-81
2024/05/06 15:07:19;;;;;;;1.75;1.10;;;;;;;;;;5332819;26;20012;-83